createdAt,value
2023-09-12T00:00:24.598Z,51.31
2023-09-12T00:02:51.515Z,51.29
2023-09-12T00:05:18.284Z,51.18
2023-09-12T00:07:44.902Z,50.15
2023-09-12T00:10:11.525Z,49.87
2023-09-12T00:12:38.137Z,49.74
2023-09-12T00:15:05.648Z,49.88
2023-09-12T00:17:32.334Z,49.72
2023-09-12T00:19:58.908Z,49.54
2023-09-12T00:22:25.441Z,50.04
2023-09-12T00:24:51.995Z,49.86
2023-09-12T00:27:18.593Z,49.75
2023-09-12T00:29:45.285Z,49.29
2023-09-12T00:32:11.813Z,49.24
2023-09-12T00:34:38.434Z,49.42
2023-09-12T00:37:05.722Z,49.12
2023-09-12T00:39:33.024Z,48.96
2023-09-12T00:44:26.091Z,49.66
2023-09-12T00:46:54.509Z,49.79
2023-09-12T00:49:23.548Z,49.81
2023-09-12T00:51:51.744Z,49.89
2023-09-12T00:54:18.811Z,49.38
2023-09-12T00:56:46.362Z,49.46
2023-09-12T00:59:14.373Z,48.95
2023-09-12T01:01:41.075Z,49.22
2023-09-12T01:04:14.634Z,48.98
2023-09-12T01:06:48.701Z,49.06
2023-09-12T01:09:15.458Z,49.52
2023-09-12T01:11:42.577Z,49.52
2023-09-12T01:14:09.139Z,49.53
2023-09-12T01:16:35.706Z,49.60
2023-09-12T01:19:02.766Z,49.68
2023-09-12T01:21:41.177Z,50.35
2023-09-12T01:24:07.711Z,50.75
2023-09-12T01:27:00.451Z,50.33
2023-09-12T01:29:27.863Z,50.41
2023-09-12T01:31:56.085Z,50.25
2023-09-12T01:34:22.714Z,51.10
2023-09-12T01:36:49.287Z,50.74
2023-09-12T01:39:15.869Z,50.11
2023-09-12T01:41:46.946Z,49.85
2023-09-12T01:44:15.293Z,50.31
2023-09-12T01:46:43.334Z,50.40
2023-09-12T01:49:12.042Z,51.75
2023-09-12T01:51:39.269Z,51.34
2023-09-12T01:54:08.063Z,50.90
2023-09-12T01:56:35.220Z,51.30
2023-09-12T01:59:03.200Z,51.06
2023-09-12T02:01:29.770Z,51.15
2023-09-12T02:03:56.389Z,51.22
2023-09-12T02:06:23.083Z,51.06
2023-09-12T02:08:49.591Z,50.82
2023-09-12T02:11:16.111Z,50.60
2023-09-12T02:13:42.638Z,51.04
2023-09-12T02:16:09.527Z,51.57
2023-09-12T02:18:36.298Z,51.26
2023-09-12T02:21:02.995Z,50.66
2023-09-12T02:23:29.556Z,50.65
2023-09-12T02:25:57.048Z,50.71
2023-09-12T02:28:23.629Z,51.01
2023-09-12T02:30:50.225Z,50.94
2023-09-12T02:33:16.913Z,51.17
2023-09-12T02:35:43.595Z,51.35
2023-09-12T02:38:10.260Z,51.10
2023-09-12T02:40:36.872Z,51.46
2023-09-12T02:43:03.548Z,52.19
2023-09-12T02:45:30.150Z,52.49
2023-09-12T02:47:56.820Z,52.57
2023-09-12T02:50:23.370Z,53.01
2023-09-12T02:52:49.951Z,53.80
2023-09-12T02:55:16.501Z,53.27
2023-09-12T02:57:43.100Z,52.95
2023-09-12T03:00:10.763Z,53.02
2023-09-12T03:02:37.509Z,53.85
2023-09-12T03:05:04.466Z,53.99
2023-09-12T03:07:31.645Z,54.35
2023-09-12T03:09:58.280Z,54.55
2023-09-12T03:12:24.846Z,54.57
2023-09-12T03:14:51.393Z,54.14
2023-09-12T03:17:18.044Z,54.61
2023-09-12T03:19:44.691Z,54.29
2023-09-12T03:22:11.217Z,53.57
2023-09-12T03:24:37.776Z,54.01
2023-09-12T03:27:04.708Z,54.23
2023-09-12T03:29:32.500Z,54.60
2023-09-12T03:31:59.107Z,54.34
2023-09-12T03:34:25.934Z,54.39
2023-09-12T03:36:52.430Z,54.33
2023-09-12T03:39:18.934Z,54.48
2023-09-12T03:41:45.501Z,54.67
2023-09-12T03:44:12.045Z,55.04
2023-09-12T03:46:38.654Z,54.71
2023-09-12T03:49:05.416Z,55.11
2023-09-12T03:51:32.049Z,54.99
2023-09-12T03:53:58.611Z,54.59
2023-09-12T03:56:25.139Z,54.65
2023-09-12T03:58:51.693Z,54.46
2023-09-12T04:01:18.291Z,54.70
2023-09-12T04:03:45.856Z,54.49
2023-09-12T04:06:12.561Z,55.07
2023-09-12T04:08:39.095Z,54.89
2023-09-12T04:11:05.604Z,54.85
2023-09-12T04:13:32.107Z,54.62
2023-09-12T04:15:58.829Z,55.14
2023-09-12T04:18:25.631Z,55.06
2023-09-12T04:20:52.218Z,55.07
2023-09-12T04:23:18.841Z,54.77
2023-09-12T04:25:47.352Z,55.74
2023-09-12T04:28:13.869Z,55.96
2023-09-12T04:30:41.093Z,56.01
2023-09-12T04:33:07.876Z,56.58
2023-09-12T04:35:35.346Z,57.31
2023-09-12T04:38:02.176Z,56.97
2023-09-12T04:40:28.723Z,57.61
2023-09-12T04:42:55.210Z,57.45
2023-09-12T04:45:21.920Z,57.46
2023-09-12T04:47:48.450Z,58.89
2023-09-12T04:50:15.035Z,57.05
2023-09-12T04:52:42.373Z,56.46
2023-09-12T04:55:09.264Z,56.35
2023-09-12T04:57:35.884Z,56.85
2023-09-12T05:00:02.522Z,55.95
2023-09-12T05:02:29.336Z,56.58
2023-09-12T05:04:55.990Z,56.29
2023-09-12T05:07:22.656Z,56.51
2023-09-12T05:09:49.229Z,56.79
2023-09-12T05:12:15.894Z,56.85
2023-09-12T05:14:44.799Z,56.63
2023-09-12T05:17:11.306Z,56.65
2023-09-12T05:19:37.815Z,56.05
2023-09-12T05:22:04.616Z,56.05
2023-09-12T05:24:31.261Z,56.08
2023-09-12T05:26:57.806Z,55.96
2023-09-12T05:29:24.289Z,55.62
2023-09-12T05:31:50.963Z,55.54
2023-09-12T05:34:17.688Z,55.83
2023-09-12T05:36:44.256Z,56.27
2023-09-12T05:39:10.847Z,56.08
2023-09-12T05:41:37.579Z,55.54
2023-09-12T05:44:04.917Z,55.52
2023-09-12T05:46:31.421Z,55.90
2023-09-12T05:48:58.033Z,55.76
2023-09-12T05:51:24.673Z,55.76
2023-09-12T05:53:51.158Z,55.44
2023-09-12T05:56:17.703Z,54.53
2023-09-12T05:58:44.637Z,54.58
2023-09-12T06:01:12.051Z,54.33
2023-09-12T06:03:38.847Z,54.28
2023-09-12T06:06:05.680Z,54.42
2023-09-12T06:08:32.257Z,53.32
2023-09-12T06:10:58.766Z,53.66
2023-09-12T06:13:25.993Z,53.23
2023-09-12T06:15:52.616Z,53.62
2023-09-12T06:18:20.871Z,55.43
2023-09-12T06:20:47.454Z,55.97
2023-09-12T06:23:13.984Z,57.19
2023-09-12T06:25:40.547Z,58.08
2023-09-12T06:28:10.159Z,57.90
2023-09-12T06:30:36.893Z,58.94
2023-09-12T06:33:03.658Z,58.81
2023-09-12T06:35:30.233Z,58.39
2023-09-12T06:37:57.960Z,58.28
2023-09-12T06:40:24.509Z,57.13
2023-09-12T06:42:51.192Z,56.09
2023-09-12T06:45:17.809Z,55.61
2023-09-12T06:47:44.390Z,55.20
2023-09-12T06:50:14.675Z,54.44
2023-09-12T06:52:42.820Z,53.25
2023-09-12T06:55:09.649Z,52.43
2023-09-12T06:57:36.278Z,51.83
2023-09-12T07:00:07.585Z,51.27
2023-09-12T07:02:34.513Z,50.61
2023-09-12T07:05:01.204Z,51.43
2023-09-12T07:07:27.745Z,50.91
2023-09-12T07:10:01.685Z,49.57
2023-09-12T07:12:35.287Z,49.68
2023-09-12T07:15:02.180Z,49.54
2023-09-12T07:17:29.497Z,48.67
2023-09-12T07:19:56.219Z,47.63
2023-09-12T07:22:22.756Z,47.09
2023-09-12T07:24:49.395Z,46.83
2023-09-12T07:27:16.001Z,47.23
2023-09-12T07:29:42.507Z,46.52
2023-09-12T07:32:09.066Z,45.78
2023-09-12T07:34:35.605Z,45.53
2023-09-12T07:37:02.150Z,44.92
2023-09-12T07:39:28.706Z,44.39
2023-09-12T07:41:55.374Z,42.45
2023-09-12T07:44:22.057Z,40.64
2023-09-12T07:46:48.589Z,39.97
2023-09-12T07:49:15.096Z,39.49
2023-09-12T07:51:41.608Z,39.37
2023-09-12T07:54:08.123Z,38.43
2023-09-12T07:56:34.630Z,37.38
2023-09-12T07:59:01.110Z,36.50
2023-09-12T08:01:28.525Z,36.46
2023-09-12T08:03:55.757Z,35.67
2023-09-12T08:06:25.166Z,35.31
2023-09-12T08:08:51.802Z,34.26
2023-09-12T08:11:18.366Z,34.06
2023-09-12T08:13:47.155Z,34.81
2023-09-12T08:16:13.742Z,34.04
2023-09-12T08:18:40.320Z,35.88
2023-09-12T08:21:07.040Z,33.36
2023-09-12T08:23:33.675Z,34.08
2023-09-12T08:26:00.815Z,33.63
2023-09-12T08:28:27.396Z,33.50
2023-09-12T08:30:53.977Z,32.36
2023-09-12T08:33:21.313Z,32.27
2023-09-12T08:35:50.682Z,31.31
2023-09-12T08:38:17.470Z,30.23
2023-09-12T08:40:51.368Z,30.37
2023-09-12T08:43:18.292Z,29.56
2023-09-12T08:45:45.970Z,28.00
2023-09-12T08:48:13.913Z,28.55
2023-09-12T08:50:40.583Z,29.34
2023-09-12T08:53:08.893Z,28.45
2023-09-12T08:55:37.119Z,26.75
2023-09-12T08:58:05.918Z,27.24
2023-09-12T09:00:32.953Z,25.78
2023-09-12T09:03:00.338Z,27.77
2023-09-12T09:05:28.778Z,27.59
2023-09-12T09:07:55.986Z,28.51
2023-09-12T09:10:34.723Z,26.43
2023-09-12T09:13:11.031Z,24.85
2023-09-12T09:15:39.137Z,23.91
2023-09-12T09:18:07.006Z,23.93
2023-09-12T09:20:36.061Z,23.20
2023-09-12T09:23:07.310Z,22.15
2023-09-12T09:25:35.067Z,22.54
2023-09-12T09:28:06.171Z,21.97
2023-09-12T09:30:49.920Z,22.09
2023-09-12T09:33:16.900Z,20.75
2023-09-12T09:35:47.559Z,22.84
2023-09-12T09:38:17.523Z,20.66
2023-09-12T09:40:45.657Z,20.19
2023-09-12T09:43:12.786Z,19.15
2023-09-12T09:45:47.420Z,17.79
2023-09-12T09:48:25.830Z,18.02
2023-09-12T09:50:53.910Z,19.57
2023-09-12T09:53:30.511Z,18.50
2023-09-12T09:56:12.571Z,18.97
2023-09-12T09:58:53.784Z,17.77
2023-09-12T10:01:22.830Z,17.93
2023-09-12T10:03:51.360Z,18.89
2023-09-12T10:06:19.836Z,19.35
2023-09-12T10:08:51.188Z,17.92
2023-09-12T10:11:19.686Z,17.56
2023-09-12T10:13:50.167Z,16.71
2023-09-12T10:16:17.707Z,17.33
2023-09-12T10:19:08.097Z,17.67
2023-09-12T10:21:36.232Z,16.49
2023-09-12T10:24:04.868Z,16.40
2023-09-12T10:26:35.845Z,16.76
2023-09-12T10:29:03.907Z,16.61
2023-09-12T10:31:33.032Z,16.34
2023-09-12T10:34:01.164Z,17.30
2023-09-12T10:36:28.084Z,17.25
2023-09-12T10:38:56.199Z,17.02
2023-09-12T10:41:25.177Z,16.21
2023-09-12T10:43:54.955Z,15.39
2023-09-12T10:46:22.388Z,15.84
2023-09-12T10:48:49.280Z,15.77
2023-09-12T10:51:19.133Z,15.83
2023-09-12T10:53:49.812Z,17.95
2023-09-12T10:56:19.333Z,19.58
2023-09-12T10:59:13.652Z,17.75
2023-09-12T11:01:46.713Z,17.73
2023-09-12T11:04:28.429Z,18.38
2023-09-12T11:06:56.537Z,16.69
2023-09-12T11:09:26.850Z,16.25
2023-09-12T11:12:11.086Z,15.25
2023-09-12T11:14:38.910Z,15.17
2023-09-12T11:17:08.795Z,15.55
2023-09-12T11:19:52.966Z,15.52
2023-09-12T11:22:28.763Z,15.95
2023-09-12T11:24:59.708Z,15.16
2023-09-12T11:28:01.393Z,16.42
2023-09-12T11:30:32.064Z,16.50
2023-09-12T11:33:01.214Z,17.17
2023-09-12T11:35:30.323Z,16.63
2023-09-12T11:38:01.174Z,17.37
2023-09-12T11:40:44.854Z,18.28
2023-09-12T11:43:28.240Z,18.29
2023-09-12T11:45:57.295Z,15.67
2023-09-12T11:48:24.015Z,16.67
2023-09-12T11:50:53.537Z,16.38
2023-09-12T11:53:26.959Z,14.68
2023-09-12T11:55:59.105Z,16.86
2023-09-12T11:58:26.615Z,16.00
2023-09-12T12:00:55.267Z,15.60
2023-09-12T12:03:23.664Z,17.00
2023-09-12T12:05:51.350Z,15.97
2023-09-12T12:10:53.168Z,15.28
2023-09-12T12:13:21.292Z,15.18
2023-09-12T12:15:48.260Z,14.89
2023-09-12T12:18:15.444Z,16.99
2023-09-12T12:20:43.105Z,15.98
2023-09-12T12:23:09.825Z,13.69
2023-09-12T12:25:36.874Z,13.98
2023-09-12T12:28:05.080Z,13.76
2023-09-12T12:30:33.865Z,13.45
2023-09-12T12:33:15.734Z,12.89
2023-09-12T12:35:53.997Z,14.03
2023-09-12T12:38:21.668Z,13.33
2023-09-12T12:40:50.277Z,14.12
2023-09-12T12:43:21.809Z,13.96
2023-09-12T12:45:58.404Z,14.09
2023-09-12T12:48:35.862Z,14.43
2023-09-12T12:51:24.060Z,14.88
2023-09-12T12:53:55.450Z,14.48
2023-09-12T12:56:24.532Z,16.38
2023-09-12T12:58:58.173Z,16.38
2023-09-12T13:01:25.725Z,18.27
2023-09-12T13:03:52.639Z,17.78
2023-09-12T13:06:19.775Z,17.98
2023-09-12T13:08:47.933Z,16.36
2023-09-12T13:11:17.889Z,15.81
2023-09-12T13:13:46.029Z,15.15
2023-09-12T13:16:14.365Z,14.77
2023-09-12T13:18:41.665Z,15.17
2023-09-12T13:21:08.607Z,14.46
2023-09-12T13:23:37.884Z,14.90
2023-09-12T13:26:05.318Z,15.42
2023-09-12T13:28:31.813Z,15.43
2023-09-12T13:31:01.277Z,14.40
2023-09-12T13:33:28.175Z,14.70
2023-09-12T13:35:54.762Z,15.54
2023-09-12T13:38:21.512Z,16.76
2023-09-12T13:40:48.124Z,15.95
2023-09-12T13:43:15.310Z,16.65
2023-09-12T13:45:42.233Z,17.47
2023-09-12T13:48:09.554Z,16.80
2023-09-12T13:50:36.646Z,17.23
2023-09-12T13:53:11.222Z,17.66
2023-09-12T13:56:18.323Z,17.56
2023-09-12T13:58:28.859Z,16.99
2023-09-12T14:00:57.360Z,16.29
2023-09-12T14:03:24.361Z,16.06
2023-09-12T14:05:51.658Z,15.67
2023-09-12T14:08:19.476Z,15.55
2023-09-12T14:10:46.653Z,15.13
2023-09-12T14:15:43.635Z,17.50
2023-09-12T14:18:11.277Z,17.74
2023-09-12T14:20:38.042Z,17.39
2023-09-12T14:23:06.180Z,17.78
2023-09-12T14:25:33.465Z,18.17
2023-09-12T14:28:00.358Z,18.23
2023-09-12T14:30:35.219Z,18.33
2023-09-12T14:33:04.106Z,18.60
2023-09-12T14:35:30.800Z,18.61
2023-09-12T14:37:57.446Z,19.62
2023-09-12T14:40:24.960Z,19.81
2023-09-12T14:42:51.682Z,19.97
2023-09-12T14:45:18.529Z,19.74
2023-09-12T14:47:45.132Z,20.46
2023-09-12T14:50:11.776Z,20.14
2023-09-12T14:52:39.513Z,20.70
2023-09-12T14:55:09.565Z,20.80
2023-09-12T14:57:36.205Z,21.76
2023-09-12T15:00:02.954Z,21.96
2023-09-12T15:02:32.640Z,21.30
2023-09-12T15:05:04.985Z,21.03
2023-09-12T15:07:31.725Z,21.25
2023-09-12T15:09:58.659Z,20.26
2023-09-12T15:12:26.043Z,22.04
2023-09-12T15:14:52.966Z,21.23
2023-09-12T15:17:19.888Z,22.03
2023-09-12T15:19:46.548Z,22.14
2023-09-12T15:22:13.549Z,21.61
2023-09-12T15:24:41.844Z,23.19
2023-09-12T15:27:08.449Z,24.45
2023-09-12T15:29:35.583Z,24.44
2023-09-12T15:32:02.259Z,24.29
2023-09-12T15:34:28.870Z,24.54
2023-09-12T15:37:22.306Z,25.14
2023-09-12T15:39:49.748Z,24.68
2023-09-12T15:42:32.786Z,24.25
2023-09-12T15:45:03.544Z,23.86
2023-09-12T15:47:30.998Z,23.88
2023-09-12T15:49:57.794Z,24.66
2023-09-12T15:52:24.558Z,24.22
2023-09-12T15:54:53.286Z,23.83
2023-09-12T15:57:20.309Z,23.91
2023-09-12T15:59:46.865Z,24.04
2023-09-12T16:02:13.864Z,24.41
2023-09-12T16:04:40.629Z,24.92
2023-09-12T16:07:07.350Z,25.36
2023-09-12T16:09:34.019Z,27.55
2023-09-12T16:12:00.536Z,28.96
2023-09-12T16:14:27.152Z,28.68
2023-09-12T16:16:53.857Z,27.28
2023-09-12T16:19:20.402Z,28.78
2023-09-12T16:21:47.180Z,28.05
2023-09-12T16:24:13.774Z,30.04
2023-09-12T16:26:40.281Z,30.46
2023-09-12T16:29:07.026Z,30.94
2023-09-12T16:31:33.741Z,30.65
2023-09-12T16:34:00.499Z,31.14
2023-09-12T16:36:27.372Z,31.36
2023-09-12T16:38:54.646Z,31.56
2023-09-12T16:41:21.274Z,29.28
2023-09-12T16:43:47.868Z,25.65
2023-09-12T16:46:14.539Z,25.58
2023-09-12T16:48:41.861Z,24.94
2023-09-12T16:51:08.358Z,26.52
2023-09-12T16:53:34.820Z,26.49
2023-09-12T16:56:01.357Z,27.83
2023-09-12T16:58:28.070Z,28.19
2023-09-12T17:00:55.093Z,28.17
2023-09-12T17:03:21.888Z,28.29
2023-09-12T17:05:48.918Z,28.87
2023-09-12T17:08:15.599Z,29.01
2023-09-12T17:10:43.144Z,29.52
2023-09-12T17:13:09.909Z,30.42
2023-09-12T17:15:38.711Z,30.73
2023-09-12T17:18:06.374Z,31.01
2023-09-12T17:20:34.086Z,31.00
2023-09-12T17:23:00.693Z,31.53
2023-09-12T17:25:27.257Z,31.93
2023-09-12T17:27:53.866Z,32.29
2023-09-12T17:30:20.652Z,32.71
2023-09-12T17:32:47.273Z,32.55
2023-09-12T17:35:13.970Z,32.74
2023-09-12T17:37:40.937Z,32.78
2023-09-12T17:40:08.367Z,33.45
2023-09-12T17:42:35.734Z,33.79
2023-09-12T17:45:02.496Z,33.66
2023-09-12T17:47:29.145Z,34.03
2023-09-12T17:49:57.352Z,34.62
2023-09-12T17:52:23.985Z,34.79
2023-09-12T17:54:50.555Z,35.46
2023-09-12T17:57:17.151Z,35.93
2023-09-12T17:59:45.314Z,35.83
2023-09-12T18:02:12.297Z,34.71
2023-09-12T18:04:40.074Z,35.21
2023-09-12T18:07:07.010Z,36.21
2023-09-12T18:09:35.432Z,36.57
2023-09-12T18:12:02.147Z,36.79
2023-09-12T18:14:28.648Z,37.24
2023-09-12T18:16:55.525Z,38.04
2023-09-12T18:19:23.490Z,37.97
2023-09-12T18:21:50.573Z,38.41
2023-09-12T18:24:18.570Z,38.49
2023-09-12T18:26:46.090Z,38.30
2023-09-12T18:29:18.956Z,38.15
2023-09-12T18:31:45.631Z,38.49
2023-09-12T18:34:12.271Z,38.64
2023-09-12T18:36:39.195Z,39.15
2023-09-12T18:39:08.106Z,39.66
2023-09-12T18:41:35.618Z,39.63
2023-09-12T18:44:03.192Z,39.78
2023-09-12T18:46:29.908Z,39.81
2023-09-12T18:48:56.636Z,40.19
2023-09-12T18:51:23.540Z,40.28
2023-09-12T18:53:50.081Z,40.53
2023-09-12T18:56:16.634Z,39.98
2023-09-12T18:58:43.331Z,39.76
2023-09-12T19:01:10.037Z,40.56
2023-09-12T19:03:36.936Z,40.47
2023-09-12T19:06:04.832Z,40.35
2023-09-12T19:08:31.441Z,40.36
2023-09-12T19:10:58.154Z,40.70
2023-09-12T19:13:24.649Z,41.84
2023-09-12T19:15:51.239Z,41.61
2023-09-12T19:18:17.802Z,41.08
2023-09-12T19:20:44.374Z,41.57
2023-09-12T19:23:10.977Z,41.80
2023-09-12T19:25:41.136Z,41.31
2023-09-12T19:28:10.111Z,42.05
2023-09-12T19:30:39.939Z,41.83
2023-09-12T19:33:09.634Z,41.42
2023-09-12T19:35:41.838Z,41.54
2023-09-12T19:38:08.828Z,41.77
2023-09-12T19:40:37.348Z,41.46
2023-09-12T19:43:04.364Z,41.71
2023-09-12T19:45:31.091Z,41.87
2023-09-12T19:48:01.489Z,41.72
2023-09-12T19:50:31.692Z,42.22
2023-09-12T19:52:58.194Z,43.12
2023-09-12T19:55:26.223Z,42.85
2023-09-12T19:57:53.292Z,43.39
2023-09-12T20:00:19.926Z,43.50
2023-09-12T20:02:47.579Z,42.33
2023-09-12T20:05:14.208Z,42.99
2023-09-12T20:07:40.732Z,42.87
2023-09-12T20:10:07.637Z,42.30
2023-09-12T20:12:34.453Z,43.42
2023-09-12T20:15:01.265Z,42.81
2023-09-12T20:17:28.047Z,43.03
2023-09-12T20:19:54.967Z,43.61
2023-09-12T20:22:21.723Z,43.85
2023-09-12T20:24:48.338Z,44.04
2023-09-12T20:27:14.892Z,43.46
2023-09-12T20:29:41.467Z,44.64
2023-09-12T20:32:08.171Z,44.82
2023-09-12T20:34:35.871Z,44.97
2023-09-12T20:37:05.885Z,45.18
2023-09-12T20:39:33.958Z,45.21
2023-09-12T20:42:01.393Z,45.15
2023-09-12T20:44:28.424Z,45.21
2023-09-12T20:46:55.735Z,44.37
2023-09-12T20:49:22.467Z,45.00
2023-09-12T20:51:50.360Z,45.31
2023-09-12T20:54:18.617Z,46.23
2023-09-12T20:56:48.914Z,45.92
2023-09-12T20:59:15.766Z,46.24
2023-09-12T21:01:42.444Z,46.68
2023-09-12T21:04:09.245Z,46.45
2023-09-12T21:06:36.048Z,45.97
2023-09-12T21:09:03.811Z,45.67
2023-09-12T21:11:30.502Z,46.05
2023-09-12T21:13:57.074Z,46.63
2023-09-12T21:16:23.695Z,46.79
2023-09-12T21:18:50.301Z,48.38
2023-09-12T21:21:16.944Z,47.76
2023-09-12T21:23:43.653Z,47.56
2023-09-12T21:26:10.434Z,47.62
2023-09-12T21:28:36.971Z,46.30
2023-09-12T21:31:05.020Z,46.20
2023-09-12T21:33:31.712Z,45.82
2023-09-12T21:35:58.279Z,45.18
2023-09-12T21:38:24.835Z,46.33
2023-09-12T21:40:51.399Z,48.73
2023-09-12T21:43:17.932Z,52.24
2023-09-12T21:45:44.633Z,53.93
2023-09-12T21:48:11.426Z,54.32
2023-09-12T21:50:38.067Z,55.75
2023-09-12T21:53:05.609Z,55.38
2023-09-12T21:55:35.677Z,57.34
2023-09-12T21:58:03.631Z,59.77
2023-09-12T22:00:32.211Z,61.29
2023-09-12T22:02:59.584Z,61.43
2023-09-12T22:05:26.874Z,62.91
2023-09-12T22:07:53.572Z,64.08
2023-09-12T22:10:21.241Z,64.15
2023-09-12T22:12:48.264Z,65.12
2023-09-12T22:15:17.092Z,64.40
2023-09-12T22:17:43.874Z,64.67
2023-09-12T22:20:14.035Z,65.01
2023-09-12T22:22:40.970Z,65.08
2023-09-12T22:25:07.850Z,64.92
2023-09-12T22:27:34.618Z,64.95
2023-09-12T22:30:01.302Z,64.65
2023-09-12T22:32:28.712Z,64.77
2023-09-12T22:34:55.255Z,64.72
2023-09-12T22:37:21.817Z,63.31
2023-09-12T22:39:49.017Z,64.30
2023-09-12T22:42:15.815Z,65.15
2023-09-12T22:44:43.311Z,66.32
2023-09-12T22:47:09.889Z,66.80
2023-09-12T22:49:36.716Z,66.53
2023-09-12T22:52:04.534Z,66.71
2023-09-12T22:54:31.358Z,67.08
2023-09-12T22:56:57.918Z,66.96
2023-09-12T22:59:24.550Z,67.54
2023-09-12T23:01:51.266Z,64.13
2023-09-12T23:04:18.049Z,63.04
2023-09-12T23:06:45.637Z,61.71
2023-09-12T23:09:12.324Z,60.98
2023-09-12T23:11:38.901Z,61.19
2023-09-12T23:14:05.475Z,61.32
2023-09-12T23:16:32.396Z,61.64
2023-09-12T23:18:59.106Z,60.53
2023-09-12T23:21:25.618Z,62.70
2023-09-12T23:23:52.268Z,65.65
2023-09-12T23:26:19.835Z,63.97
2023-09-12T23:28:46.397Z,62.96
2023-09-12T23:31:13.032Z,65.40
2023-09-12T23:33:39.697Z,66.16
2023-09-12T23:36:06.322Z,65.97
2023-09-12T23:38:32.918Z,65.37
2023-09-12T23:40:59.414Z,62.80
2023-09-12T23:43:25.952Z,62.91
2023-09-12T23:45:52.620Z,60.94
2023-09-12T23:48:19.176Z,62.06
2023-09-12T23:50:45.722Z,63.35
2023-09-12T23:53:12.285Z,63.94
2023-09-12T23:55:38.841Z,64.45
2023-09-12T23:58:05.413Z,64.99
